createdAt,value
2017-08-21T00:01:15.828Z,3.50
2017-08-21T00:03:41.973Z,3.70
2017-08-21T00:06:08.175Z,4.17
2017-08-21T00:08:34.308Z,3.53
2017-08-21T00:11:00.456Z,3.40
2017-08-21T00:13:26.570Z,3.03
2017-08-21T00:15:52.872Z,3.97
2017-08-21T00:18:19.097Z,3.13
2017-08-21T00:20:45.241Z,3.50
2017-08-21T00:23:11.364Z,3.20
2017-08-21T00:25:37.494Z,4.10
2017-08-21T00:28:03.692Z,3.77
2017-08-21T00:30:29.843Z,3.67
2017-08-21T00:32:55.977Z,3.60
2017-08-21T00:35:22.120Z,3.20
2017-08-21T00:37:48.229Z,3.43
2017-08-21T00:40:20.530Z,3.43
2017-08-21T00:42:52.813Z,3.07
2017-08-21T00:45:25.231Z,3.10
2017-08-21T00:47:57.456Z,3.93
2017-08-21T00:50:29.924Z,2.80
2017-08-21T00:53:02.210Z,2.97
2017-08-21T00:55:34.479Z,3.10
2017-08-21T00:58:06.881Z,3.50
2017-08-21T01:00:39.293Z,3.30
2017-08-21T01:03:11.766Z,3.10
2017-08-21T01:05:44.222Z,3.43
2017-08-21T01:08:16.520Z,3.50
2017-08-21T01:10:48.721Z,3.30
2017-08-21T01:13:21.116Z,3.40
2017-08-21T01:15:53.431Z,3.40
2017-08-21T01:18:25.836Z,3.50
2017-08-21T01:20:58.285Z,3.73
2017-08-21T01:23:30.579Z,4.40
2017-08-21T01:26:02.847Z,3.30
2017-08-21T01:28:34.963Z,3.30
2017-08-21T01:31:07.486Z,3.50
2017-08-21T01:33:39.833Z,3.40
2017-08-21T01:36:12.294Z,3.40
2017-08-21T01:38:44.455Z,3.40
2017-08-21T01:41:16.824Z,3.70
2017-08-21T01:43:49.231Z,3.40
2017-08-21T01:46:21.443Z,3.50
2017-08-21T01:48:53.645Z,4.10
2017-08-21T01:51:26.006Z,3.67
2017-08-21T01:53:58.228Z,4.17
2017-08-21T01:56:30.483Z,3.90
2017-08-21T01:59:02.881Z,4.20
2017-08-21T02:01:35.426Z,3.80
2017-08-21T02:04:07.677Z,3.97
2017-08-21T02:06:39.885Z,3.40
2017-08-21T02:09:12.152Z,3.90
2017-08-21T02:11:44.404Z,4.00
2017-08-21T02:14:16.561Z,4.33
2017-08-21T02:16:48.795Z,3.73
2017-08-21T02:19:21.037Z,4.00
2017-08-21T02:21:53.228Z,3.80
2017-08-21T02:24:25.373Z,4.07
2017-08-21T02:26:57.810Z,4.20
2017-08-21T02:29:29.943Z,4.57
2017-08-21T02:32:02.375Z,4.27
2017-08-21T02:34:34.752Z,4.33
2017-08-21T02:37:07.079Z,4.10
2017-08-21T02:39:39.271Z,4.10
2017-08-21T02:42:11.761Z,3.60
2017-08-21T02:44:44.948Z,4.10
2017-08-21T02:47:17.399Z,4.50
2017-08-21T02:49:49.535Z,4.57
2017-08-21T02:52:21.788Z,3.87
2017-08-21T02:54:54.034Z,3.63
2017-08-21T02:57:26.222Z,4.33
2017-08-21T02:59:58.524Z,4.33
2017-08-21T03:02:30.723Z,4.53
2017-08-21T03:05:03.146Z,4.20
2017-08-21T03:07:35.436Z,5.03
2017-08-21T03:10:07.772Z,4.83
2017-08-21T03:12:40.111Z,3.83
2017-08-21T03:15:12.595Z,3.93
2017-08-21T03:17:44.795Z,4.17
2017-08-21T03:20:17.013Z,4.40
2017-08-21T03:22:49.311Z,4.63
2017-08-21T03:25:21.596Z,4.60
2017-08-21T03:27:54.029Z,4.10
2017-08-21T03:30:26.388Z,4.97
2017-08-21T03:32:58.720Z,4.80
2017-08-21T03:35:31.085Z,4.37
2017-08-21T03:38:03.449Z,4.10
2017-08-21T03:40:35.828Z,5.03
2017-08-21T03:43:08.125Z,4.17
2017-08-21T03:45:40.471Z,4.17
2017-08-21T03:48:12.755Z,5.03
2017-08-21T03:50:45.041Z,4.70
2017-08-21T03:53:17.293Z,4.70
2017-08-21T03:55:49.668Z,5.00
2017-08-21T03:58:22.012Z,4.70
2017-08-21T04:00:54.394Z,4.60
2017-08-21T04:03:26.653Z,5.13
2017-08-21T04:05:58.859Z,5.77
2017-08-21T04:08:31.265Z,5.17
2017-08-21T04:11:03.605Z,4.60
2017-08-21T04:13:35.869Z,5.00
2017-08-21T04:16:08.077Z,4.90
2017-08-21T04:18:40.274Z,5.50
2017-08-21T04:21:12.564Z,5.03
2017-08-21T04:23:44.762Z,4.80
2017-08-21T04:26:17.167Z,5.47
2017-08-21T04:28:49.530Z,5.23
2017-08-21T04:31:21.839Z,4.83
2017-08-21T04:33:54.117Z,4.80
2017-08-21T04:36:26.294Z,4.70
2017-08-21T04:38:58.565Z,4.80
2017-08-21T04:41:30.814Z,5.00
2017-08-21T04:44:03.253Z,4.70
2017-08-21T04:46:35.538Z,4.67
2017-08-21T04:49:07.927Z,5.30
2017-08-21T04:51:40.323Z,5.13
2017-08-21T04:54:12.637Z,4.87
2017-08-21T04:56:44.949Z,5.90
2017-08-21T04:59:17.182Z,5.00
2017-08-21T05:01:49.514Z,5.53
2017-08-21T05:04:21.757Z,5.00
2017-08-21T05:06:54.154Z,6.23
2017-08-21T05:09:26.396Z,5.70
2017-08-21T05:11:58.574Z,5.20
2017-08-21T05:14:30.725Z,5.50
2017-08-21T05:17:03.032Z,5.63
2017-08-21T05:19:35.341Z,5.57
2017-08-21T05:22:07.791Z,5.67
2017-08-21T05:24:40.085Z,5.63
2017-08-21T05:27:12.490Z,5.77
2017-08-21T05:29:44.728Z,5.17
2017-08-21T05:32:17.060Z,5.37
2017-08-21T05:34:49.374Z,5.20
2017-08-21T05:37:21.574Z,5.70
2017-08-21T05:39:53.812Z,6.20
2017-08-21T05:42:26.148Z,6.10
2017-08-21T05:44:58.388Z,6.07
2017-08-21T05:47:30.746Z,6.63
2017-08-21T05:50:02.882Z,7.00
2017-08-21T05:52:35.085Z,6.17
2017-08-21T05:55:07.489Z,5.27
2017-08-21T05:57:39.883Z,6.00
2017-08-21T06:00:12.114Z,5.53
2017-08-21T06:02:44.593Z,5.33
2017-08-21T06:05:17.030Z,5.87
2017-08-21T06:07:49.475Z,5.73
2017-08-21T06:10:21.750Z,5.47
2017-08-21T06:12:54.142Z,6.27
2017-08-21T06:15:26.322Z,6.03
2017-08-21T06:17:58.722Z,5.80
2017-08-21T06:20:31.126Z,5.87
2017-08-21T06:23:03.278Z,5.77
2017-08-21T06:25:35.682Z,6.23
2017-08-21T06:28:08.131Z,5.43
2017-08-21T06:30:40.494Z,6.00
2017-08-21T06:33:12.747Z,5.87
2017-08-21T06:35:45.144Z,5.73
2017-08-21T06:38:17.587Z,5.90
2017-08-21T06:40:49.749Z,5.40
2017-08-21T06:43:21.953Z,5.80
2017-08-21T06:45:54.259Z,5.33
2017-08-21T06:48:26.589Z,6.20
2017-08-21T06:50:58.782Z,6.50
2017-08-21T06:53:31.161Z,5.70
2017-08-21T06:56:03.573Z,6.37
2017-08-21T06:58:35.926Z,5.53
2017-08-21T07:01:08.278Z,5.60
2017-08-21T07:03:40.587Z,5.20
2017-08-21T07:06:12.986Z,5.53
2017-08-21T07:08:45.138Z,5.10
2017-08-21T07:11:17.401Z,4.50
2017-08-21T07:13:49.690Z,4.60
2017-08-21T07:16:22.114Z,5.00
2017-08-21T07:18:54.289Z,5.00
2017-08-21T07:21:26.595Z,4.60
2017-08-21T07:23:58.949Z,4.33
2017-08-21T07:26:31.284Z,4.17
2017-08-21T07:29:03.619Z,5.00
2017-08-21T07:31:35.909Z,4.13
2017-08-21T07:34:08.057Z,4.27
2017-08-21T07:36:40.438Z,4.00
2017-08-21T07:39:12.792Z,4.57
2017-08-21T07:41:45.085Z,4.00
2017-08-21T07:44:17.358Z,4.53
2017-08-21T07:46:49.607Z,5.13
2017-08-21T07:49:15.801Z,4.60
2017-08-21T07:51:41.992Z,4.60
2017-08-21T07:54:08.181Z,4.17
2017-08-21T07:56:34.365Z,4.87
2017-08-21T07:59:00.686Z,4.00
2017-08-21T08:01:27.027Z,3.90
2017-08-21T08:03:53.300Z,4.07
2017-08-21T08:06:19.549Z,4.00
2017-08-21T08:08:45.773Z,3.73
2017-08-21T08:11:12.003Z,3.93
2017-08-21T08:13:38.716Z,3.60
2017-08-21T08:16:04.850Z,3.70
2017-08-21T08:18:31.030Z,3.50
2017-08-21T08:20:57.299Z,3.63
2017-08-21T08:23:23.817Z,3.30
2017-08-21T08:25:50.012Z,4.07
2017-08-21T08:28:16.178Z,3.73
2017-08-21T08:30:42.408Z,3.70
2017-08-21T08:33:08.638Z,3.90
2017-08-21T08:35:34.842Z,3.27
2017-08-21T08:38:01.102Z,3.40
2017-08-21T08:40:27.290Z,3.73
2017-08-21T08:42:53.518Z,3.60
2017-08-21T08:45:19.777Z,3.27
2017-08-21T08:47:45.969Z,2.83
2017-08-21T08:50:12.164Z,2.83
2017-08-21T08:52:38.322Z,3.57
2017-08-21T08:55:04.564Z,3.30
2017-08-21T08:57:30.794Z,3.53
2017-08-21T08:59:57.059Z,3.60
2017-08-21T09:02:23.312Z,3.93
2017-08-21T09:04:49.471Z,3.37
2017-08-21T09:07:15.787Z,3.30
2017-08-21T09:09:42.000Z,4.33
2017-08-21T09:12:08.292Z,3.10
2017-08-21T09:14:34.598Z,3.77
2017-08-21T09:17:00.814Z,3.50
2017-08-21T09:19:27.066Z,3.33
2017-08-21T09:21:53.297Z,3.37
2017-08-21T09:24:19.580Z,4.40
2017-08-21T09:26:45.726Z,3.57
2017-08-21T09:29:11.992Z,3.30
2017-08-21T09:31:38.197Z,4.20
2017-08-21T09:34:04.419Z,2.73
2017-08-21T09:36:31.619Z,2.53
2017-08-21T09:38:57.870Z,3.83
2017-08-21T09:41:24.116Z,3.67
2017-08-21T09:43:50.266Z,3.20
2017-08-21T09:46:16.390Z,3.40
2017-08-21T09:48:42.725Z,2.70
2017-08-21T09:51:08.975Z,2.83
2017-08-21T09:53:35.179Z,2.90
2017-08-21T09:56:01.389Z,2.80
2017-08-21T09:58:27.670Z,2.20
2017-08-21T10:00:53.845Z,2.27
2017-08-21T10:03:20.033Z,2.90
2017-08-21T10:05:46.233Z,3.20
2017-08-21T10:08:12.434Z,2.60
2017-08-21T10:10:38.730Z,3.30
2017-08-21T10:13:04.973Z,2.70
2017-08-21T10:15:31.135Z,2.60
2017-08-21T10:17:57.338Z,2.87
2017-08-21T10:20:24.164Z,2.50
2017-08-21T10:22:50.373Z,2.90
2017-08-21T10:25:16.557Z,2.60
2017-08-21T10:27:43.881Z,3.10
2017-08-21T10:30:10.031Z,3.67
2017-08-21T10:32:36.294Z,3.73
2017-08-21T10:35:02.703Z,2.67
2017-08-21T10:37:28.905Z,2.60
2017-08-21T10:39:55.127Z,2.40
2017-08-21T10:42:21.337Z,2.53
2017-08-21T10:44:47.499Z,2.50
2017-08-21T10:47:13.713Z,2.63
2017-08-21T10:49:39.882Z,2.40
2017-08-21T10:52:06.103Z,3.60
2017-08-21T10:54:32.267Z,2.73
2017-08-21T10:56:58.461Z,2.30
2017-08-21T10:59:24.656Z,3.40
2017-08-21T11:01:50.790Z,3.07
2017-08-21T11:04:17.072Z,2.60
2017-08-21T11:06:43.249Z,2.70
2017-08-21T11:09:09.479Z,2.50
2017-08-21T11:11:35.766Z,2.60
2017-08-21T11:14:02.043Z,2.80
2017-08-21T11:16:28.181Z,3.00
2017-08-21T11:18:54.505Z,2.87
2017-08-21T11:21:20.723Z,3.87
2017-08-21T11:23:46.963Z,2.70
2017-08-21T11:26:13.196Z,2.43
2017-08-21T11:28:39.388Z,2.03
2017-08-21T11:31:05.522Z,2.47
2017-08-21T11:33:31.652Z,2.00
2017-08-21T11:35:57.861Z,2.10
2017-08-21T11:38:54.726Z,1.77
2017-08-21T11:41:20.989Z,3.00
2017-08-21T11:43:47.198Z,2.70
2017-08-21T11:46:13.455Z,2.50
2017-08-21T11:48:39.649Z,1.97
2017-08-21T11:51:05.786Z,2.10
2017-08-21T11:53:31.979Z,2.83
2017-08-21T11:55:58.139Z,2.00
2017-08-21T11:58:24.357Z,1.90
2017-08-21T12:00:50.738Z,2.53
2017-08-21T12:03:16.921Z,2.47
2017-08-21T12:05:43.218Z,2.20
2017-08-21T12:08:09.408Z,2.20
2017-08-21T12:10:35.611Z,2.23
2017-08-21T12:13:01.844Z,2.60
2017-08-21T12:15:28.085Z,2.10
2017-08-21T12:17:54.306Z,2.17
2017-08-21T12:20:20.511Z,2.30
2017-08-21T12:22:46.769Z,2.60
2017-08-21T12:25:12.961Z,2.60
2017-08-21T12:27:40.286Z,3.60
2017-08-21T12:30:06.476Z,2.80
2017-08-21T12:32:32.601Z,2.90
2017-08-21T12:34:59.345Z,2.17
2017-08-21T12:37:25.578Z,2.77
2017-08-21T12:39:51.868Z,2.50
2017-08-21T12:42:18.592Z,2.47
2017-08-21T12:44:44.741Z,2.30
2017-08-21T12:47:10.945Z,2.37
2017-08-21T12:49:37.115Z,2.30
2017-08-21T12:52:03.285Z,2.33
2017-08-21T12:54:29.476Z,3.03
2017-08-21T12:56:55.598Z,4.10
2017-08-21T12:59:21.745Z,2.77
2017-08-21T13:01:47.941Z,2.40
2017-08-21T13:04:14.087Z,2.30
2017-08-21T13:06:40.255Z,2.50
2017-08-21T13:09:06.430Z,1.83
2017-08-21T13:11:32.628Z,2.60
2017-08-21T13:13:59.348Z,2.43
2017-08-21T13:16:25.536Z,2.07
2017-08-21T13:18:51.668Z,2.30
2017-08-21T13:21:17.861Z,2.13
2017-08-21T13:23:44.206Z,2.43
2017-08-21T13:26:10.396Z,1.83
2017-08-21T13:28:36.593Z,2.23
2017-08-21T13:31:02.811Z,2.60
2017-08-21T13:33:28.912Z,2.70
2017-08-21T13:35:55.069Z,2.03
2017-08-21T13:38:21.169Z,2.30
2017-08-21T13:40:47.293Z,2.27
2017-08-21T13:43:13.479Z,2.77
2017-08-21T13:45:39.995Z,1.93
2017-08-21T13:48:06.213Z,2.43
2017-08-21T13:50:32.357Z,2.37
2017-08-21T13:52:58.566Z,3.23
2017-08-21T13:55:24.801Z,2.43
2017-08-21T13:57:51.045Z,2.30
2017-08-21T14:00:17.253Z,2.10
2017-08-21T14:02:43.543Z,2.27
2017-08-21T14:05:09.809Z,2.10
2017-08-21T14:07:37.123Z,2.50
2017-08-21T14:10:03.290Z,2.67
2017-08-21T14:12:29.562Z,2.90
2017-08-21T14:14:56.040Z,2.33
2017-08-21T14:17:22.200Z,3.70
2017-08-21T14:19:48.444Z,4.53
2017-08-21T14:22:14.638Z,4.93
2017-08-21T14:24:40.901Z,4.90
2017-08-21T14:27:07.148Z,4.90
2017-08-21T14:29:33.298Z,4.97
2017-08-21T14:31:59.483Z,5.50
2017-08-21T14:34:25.715Z,5.93
2017-08-21T14:36:51.937Z,5.90
2017-08-21T14:39:18.160Z,4.70
2017-08-21T14:41:44.381Z,5.07
2017-08-21T14:44:10.623Z,4.87
2017-08-21T14:46:36.827Z,4.40
2017-08-21T14:49:03.653Z,4.90
2017-08-21T14:51:29.794Z,5.93
2017-08-21T14:53:56.022Z,4.30
2017-08-21T14:56:22.285Z,3.93
2017-08-21T14:58:48.502Z,6.03
2017-08-21T15:01:14.690Z,3.10
2017-08-21T15:03:40.865Z,3.20
2017-08-21T15:06:07.164Z,3.30
2017-08-21T15:08:33.428Z,2.70
2017-08-21T15:10:59.701Z,3.27
2017-08-21T15:13:25.853Z,3.00
2017-08-21T15:15:52.102Z,3.40
2017-08-21T15:18:18.312Z,2.43
2017-08-21T15:20:44.607Z,2.37
2017-08-21T15:23:11.761Z,2.30
2017-08-21T15:25:37.953Z,2.63
2017-08-21T15:28:04.620Z,2.63
2017-08-21T15:30:30.769Z,2.77
2017-08-21T15:32:57.030Z,2.90
2017-08-21T15:35:23.226Z,2.23
2017-08-21T15:37:49.524Z,3.60
2017-08-21T15:40:15.793Z,3.40
2017-08-21T15:42:42.023Z,2.87
2017-08-21T15:45:08.166Z,4.30
2017-08-21T15:47:35.559Z,6.37
2017-08-21T15:50:01.755Z,3.03
2017-08-21T15:52:28.035Z,3.93
2017-08-21T15:54:54.191Z,3.83
2017-08-21T15:57:20.409Z,2.20
2017-08-21T15:59:46.706Z,2.90
2017-08-21T16:02:12.915Z,2.70
2017-08-21T16:04:39.190Z,2.70
2017-08-21T16:07:05.395Z,2.70
2017-08-21T16:09:31.730Z,2.60
2017-08-21T16:11:57.999Z,2.70
2017-08-21T16:14:24.319Z,2.73
2017-08-21T16:16:50.597Z,2.87
2017-08-21T16:19:16.764Z,2.63
2017-08-21T16:21:42.994Z,2.93
2017-08-21T16:24:09.333Z,3.20
2017-08-21T16:26:35.549Z,2.87
2017-08-21T16:29:01.761Z,3.03
2017-08-21T16:31:27.948Z,3.60
2017-08-21T16:33:54.140Z,4.83
2017-08-21T16:36:20.360Z,7.33
2017-08-21T16:38:46.496Z,5.27
2017-08-21T16:41:12.773Z,8.33
2017-08-21T16:43:38.955Z,7.53
2017-08-21T16:46:05.330Z,4.47
2017-08-21T16:48:31.456Z,5.73
2017-08-21T16:50:57.604Z,7.47
2017-08-21T16:53:23.770Z,5.57
2017-08-21T16:55:50.048Z,5.40
2017-08-21T16:58:16.260Z,4.20
2017-08-21T17:00:42.535Z,4.60
2017-08-21T17:03:08.752Z,3.23
2017-08-21T17:05:34.970Z,2.83
2017-08-21T17:08:01.331Z,3.47
2017-08-21T17:10:27.521Z,3.80
2017-08-21T17:12:53.693Z,3.67
2017-08-21T17:15:19.930Z,3.40
2017-08-21T17:17:46.201Z,3.77
2017-08-21T17:20:12.364Z,3.90
2017-08-21T17:22:38.595Z,3.97
2017-08-21T17:25:04.697Z,3.47
2017-08-21T17:27:30.923Z,4.83
2017-08-21T17:29:57.094Z,3.47
2017-08-21T17:32:23.198Z,4.00
2017-08-21T17:34:49.325Z,4.83
2017-08-21T17:37:15.637Z,6.90
2017-08-21T17:39:41.753Z,4.00
2017-08-21T17:42:07.968Z,3.63
2017-08-21T17:44:34.158Z,5.00
2017-08-21T17:47:00.379Z,4.80
2017-08-21T17:49:26.481Z,4.17
2017-08-21T17:51:52.628Z,7.13
2017-08-21T17:54:18.940Z,6.40
2017-08-21T17:56:45.044Z,5.10
2017-08-21T17:59:11.303Z,9.00
2017-08-21T18:01:37.508Z,10.80
2017-08-21T18:04:03.649Z,5.33
2017-08-21T18:06:29.790Z,5.90
2017-08-21T18:08:56.027Z,5.30
2017-08-21T18:11:22.324Z,7.33
2017-08-21T18:13:48.508Z,7.13
2017-08-21T18:16:14.768Z,4.67
2017-08-21T18:18:41.051Z,6.07
2017-08-21T18:21:07.288Z,5.50
2017-08-21T18:23:33.450Z,4.60
2017-08-21T18:25:59.594Z,5.17
2017-08-21T18:28:25.753Z,6.00
2017-08-21T18:30:51.981Z,4.70
2017-08-21T18:33:18.193Z,4.53
2017-08-21T18:35:44.426Z,6.20
2017-08-21T18:38:10.635Z,4.87
2017-08-21T18:40:36.842Z,4.47
2017-08-21T18:43:03.044Z,5.13
2017-08-21T18:45:29.231Z,7.33
2017-08-21T18:47:55.351Z,4.60
2017-08-21T18:50:21.570Z,5.63
2017-08-21T18:52:47.721Z,6.40
2017-08-21T18:55:14.007Z,4.67
2017-08-21T18:57:40.209Z,4.00
2017-08-21T19:00:06.377Z,4.60
2017-08-21T19:02:32.622Z,5.40
2017-08-21T19:04:58.855Z,6.27
2017-08-21T19:07:25.100Z,4.50
2017-08-21T19:09:51.206Z,5.13
2017-08-21T19:12:17.414Z,7.23
2017-08-21T19:14:43.541Z,8.47
2017-08-21T19:17:09.695Z,7.23
2017-08-21T19:19:35.937Z,7.23
2017-08-21T19:22:02.217Z,6.37
2017-08-21T19:24:28.441Z,7.10
2017-08-21T19:26:54.652Z,6.07
2017-08-21T19:29:20.935Z,6.47
2017-08-21T19:31:47.209Z,5.90
2017-08-21T19:34:13.476Z,5.83
2017-08-21T19:36:39.660Z,7.40
2017-08-21T19:39:05.833Z,6.40
2017-08-21T19:41:31.974Z,8.67
2017-08-21T19:43:58.075Z,8.27
2017-08-21T19:46:24.309Z,6.37
2017-08-21T19:48:50.486Z,7.00
2017-08-21T19:51:16.718Z,5.83
2017-08-21T19:53:42.952Z,7.90
2017-08-21T19:56:09.194Z,9.13
2017-08-21T19:58:35.395Z,5.57
2017-08-21T20:01:01.610Z,7.50
2017-08-21T20:03:27.983Z,5.70
2017-08-21T20:05:54.776Z,5.40
2017-08-21T20:08:21.010Z,5.33
2017-08-21T20:10:47.165Z,4.50
2017-08-21T20:13:13.345Z,5.30
2017-08-21T20:15:39.564Z,6.30
2017-08-21T20:18:06.920Z,5.33
2017-08-21T20:20:33.491Z,4.57
2017-08-21T20:22:59.903Z,7.33
2017-08-21T20:25:28.736Z,6.20
2017-08-21T20:27:55.276Z,8.40
2017-08-21T20:30:22.351Z,10.40
2017-08-21T20:32:48.950Z,8.87
2017-08-21T20:35:15.142Z,6.00
2017-08-21T20:37:41.438Z,8.27
2017-08-21T20:40:09.756Z,11.67
2017-08-21T20:42:36.358Z,15.53
2017-08-21T20:45:02.537Z,8.40
2017-08-21T20:47:29.216Z,14.13
2017-08-21T20:49:55.534Z,13.63
2017-08-21T20:52:21.791Z,10.50
2017-08-21T20:54:48.427Z,12.37
2017-08-21T20:57:14.651Z,7.93
2017-08-21T20:59:40.827Z,8.30
2017-08-21T21:02:07.056Z,8.80
2017-08-21T21:04:33.197Z,9.80
2017-08-21T21:06:59.439Z,7.13
2017-08-21T21:09:26.919Z,7.40
2017-08-21T21:11:53.089Z,8.10
2017-08-21T21:14:20.661Z,9.83
2017-08-21T21:16:46.873Z,6.97
2017-08-21T21:19:13.158Z,12.60
2017-08-21T21:21:39.362Z,7.73
2017-08-21T21:24:05.581Z,8.50
2017-08-21T21:26:31.728Z,8.47
2017-08-21T21:28:57.889Z,6.27
2017-08-21T21:31:24.068Z,5.50
2017-08-21T21:33:50.262Z,8.17
2017-08-21T21:36:16.525Z,6.03
2017-08-21T21:38:42.708Z,7.50
2017-08-21T21:41:08.852Z,10.57
2017-08-21T21:43:35.105Z,5.80
2017-08-21T21:46:01.334Z,5.17
2017-08-21T21:48:27.502Z,5.80
2017-08-21T21:50:53.825Z,6.80
2017-08-21T21:53:19.965Z,9.87
2017-08-21T21:55:46.177Z,6.17
2017-08-21T21:58:12.359Z,7.40
2017-08-21T22:00:38.667Z,5.47
2017-08-21T22:03:05.514Z,4.63
2017-08-21T22:05:31.671Z,6.47
2017-08-21T22:07:57.960Z,6.47
2017-08-21T22:10:24.220Z,5.20
2017-08-21T22:12:50.418Z,4.00
2017-08-21T22:15:16.656Z,4.67
2017-08-21T22:17:43.280Z,5.00
2017-08-21T22:20:09.589Z,4.10
2017-08-21T22:22:36.520Z,3.70
2017-08-21T22:25:03.180Z,4.53
2017-08-21T22:27:30.094Z,3.80
2017-08-21T22:29:56.335Z,3.60
2017-08-21T22:32:22.513Z,4.70
2017-08-21T22:34:48.820Z,4.40
2017-08-21T22:37:14.967Z,4.37
2017-08-21T22:39:41.268Z,4.57
2017-08-21T22:42:07.510Z,4.30
2017-08-21T22:44:33.637Z,4.10
2017-08-21T22:46:59.969Z,4.30
2017-08-21T22:49:26.118Z,3.77
2017-08-21T22:51:52.334Z,3.97
2017-08-21T22:54:18.843Z,4.23
2017-08-21T22:56:45.356Z,4.33
2017-08-21T22:59:11.630Z,4.23
2017-08-21T23:01:37.947Z,4.80
2017-08-21T23:04:04.160Z,3.77
2017-08-21T23:06:30.407Z,4.10
2017-08-21T23:08:56.564Z,4.37
2017-08-21T23:11:22.922Z,4.37
2017-08-21T23:13:49.110Z,3.80
2017-08-21T23:16:15.419Z,3.90
2017-08-21T23:18:41.707Z,4.27
2017-08-21T23:21:07.959Z,3.80
2017-08-21T23:23:34.189Z,4.30
2017-08-21T23:26:00.420Z,4.00
2017-08-21T23:28:26.716Z,3.67
2017-08-21T23:30:53.311Z,3.53
2017-08-21T23:33:19.841Z,3.93
2017-08-21T23:35:46.149Z,4.20
2017-08-21T23:38:12.395Z,4.20
2017-08-21T23:40:38.545Z,4.07
2017-08-21T23:43:05.045Z,3.50
2017-08-21T23:45:31.380Z,4.10
2017-08-21T23:47:57.608Z,3.20
2017-08-21T23:50:23.820Z,3.70
2017-08-21T23:52:50.051Z,3.07
2017-08-21T23:55:16.227Z,3.90
2017-08-21T23:57:42.439Z,3.60
